Terminal Aerodrome Forecast
Issued by NWS Cleveland, OH

Home | Current Version | Previous Version | Text Only | Print | Product List | Glossary Off
Versions: 1 2 3 4 5 6 7 8 9 10 11 12 13 14 15 16 17

200
FTUS41 KCLE 200200 AAB
TAFERI
TAF AMD
KERI 200203Z 2002/2024 30012KT P6SM BKN025 OVC035
      TEMPO 2002/2004 BKN009 OVC015
     FM200500 32008KT P6SM OVC035
     FM201700 29012KT P6SM BKN035 OVC250
     FM202200 27008KT P6SM BKN100 OVC200=

USA.gov is the U.S. government's official web portal to all federal, state and local government web resources and services.